createdAt,value
2018-11-25T00:00:30.356Z,6.40
2018-11-25T00:02:59.808Z,4.30
2018-11-25T00:05:29.334Z,12.10
2018-11-25T00:07:58.718Z,6.77
2018-11-25T00:10:28.807Z,7.47
2018-11-25T00:13:01.221Z,7.87
2018-11-25T00:15:32.342Z,6.60
2018-11-25T00:18:03.287Z,5.73
2018-11-25T00:20:34.734Z,5.17
2018-11-25T00:23:04.839Z,5.60
2018-11-25T00:25:34.576Z,7.20
2018-11-25T00:28:04.141Z,5.43
2018-11-25T00:30:34.071Z,7.47
2018-11-25T00:33:03.908Z,6.53
2018-11-25T00:35:33.229Z,9.53
2018-11-25T00:38:03.653Z,7.90
2018-11-25T00:40:33.120Z,7.03
2018-11-25T00:43:04.830Z,5.80
2018-11-25T00:45:37.265Z,9.90
2018-11-25T00:48:07.179Z,6.30
2018-11-25T00:50:37.697Z,7.47
2018-11-25T00:53:07.997Z,9.63
2018-11-25T00:55:38.450Z,9.87
2018-11-25T00:58:07.845Z,9.40
2018-11-25T01:00:37.821Z,8.90
2018-11-25T01:03:07.829Z,9.53
2018-11-25T01:05:37.576Z,12.93
2018-11-25T01:08:08.241Z,10.37
2018-11-25T01:10:38.524Z,8.93
2018-11-25T01:13:08.053Z,8.17
2018-11-25T01:15:39.113Z,9.87
2018-11-25T01:18:08.821Z,10.97
2018-11-25T01:20:39.455Z,9.40
2018-11-25T01:23:09.772Z,9.50
2018-11-25T01:25:39.140Z,8.43
2018-11-25T01:28:09.848Z,12.73
2018-11-25T01:30:40.449Z,7.33
2018-11-25T01:33:17.954Z,6.77
2018-11-25T01:35:47.734Z,8.53
2018-11-25T01:38:18.492Z,7.10
2018-11-25T01:40:48.340Z,6.80
2018-11-25T01:43:18.704Z,6.00
2018-11-25T01:45:48.254Z,7.50
2018-11-25T01:48:18.035Z,7.43
2018-11-25T01:50:48.476Z,6.60
2018-11-25T01:53:19.745Z,15.30
2018-11-25T01:55:50.356Z,10.10
2018-11-25T01:58:20.955Z,9.77
2018-11-25T02:00:51.224Z,9.50
2018-11-25T02:03:20.732Z,9.30
2018-11-25T02:05:50.299Z,6.77
2018-11-25T02:08:20.012Z,10.40
2018-11-25T02:10:49.721Z,7.37
2018-11-25T02:13:19.845Z,7.40
2018-11-25T02:15:49.404Z,7.20
2018-11-25T02:18:18.889Z,17.30
2018-11-25T02:20:48.796Z,6.40
2018-11-25T02:23:18.185Z,7.83
2018-11-25T02:25:47.456Z,7.17
2018-11-25T02:28:19.461Z,8.23
2018-11-25T02:30:49.370Z,7.20
2018-11-25T02:33:18.867Z,10.30
2018-11-25T02:35:48.414Z,15.30
2018-11-25T02:38:17.883Z,8.60
2018-11-25T02:40:47.317Z,7.30
2018-11-25T02:43:16.922Z,9.20
2018-11-25T02:45:46.307Z,5.73
2018-11-25T02:48:15.864Z,9.40
2018-11-25T02:50:45.868Z,8.20
2018-11-25T02:53:15.317Z,8.13
2018-11-25T02:55:44.665Z,5.90
2018-11-25T02:58:14.849Z,7.57
2018-11-25T03:00:51.047Z,7.63
2018-11-25T03:03:21.648Z,10.30
2018-11-25T03:05:51.058Z,6.10
2018-11-25T03:08:20.571Z,10.00
2018-11-25T03:10:50.873Z,6.40
2018-11-25T03:13:20.242Z,7.23
2018-11-25T03:15:50.539Z,5.13
2018-11-25T03:18:20.113Z,5.33
2018-11-25T03:20:50.439Z,6.10
2018-11-25T03:23:20.310Z,7.97
2018-11-25T03:25:49.694Z,3.80
2018-11-25T03:28:19.673Z,4.83
2018-11-25T03:30:49.277Z,5.53
2018-11-25T03:33:18.618Z,11.73
2018-11-25T03:35:48.144Z,4.80
2018-11-25T03:38:18.503Z,5.17
2018-11-25T03:40:47.853Z,5.30
2018-11-25T03:43:18.128Z,4.70
2018-11-25T03:45:47.526Z,3.70
2018-11-25T03:48:17.154Z,6.67
2018-11-25T03:50:46.465Z,6.90
2018-11-25T03:53:15.837Z,6.00
2018-11-25T03:55:45.342Z,3.60
2018-11-25T03:58:15.482Z,5.80
2018-11-25T04:00:45.909Z,5.20
2018-11-25T04:03:15.413Z,6.80
2018-11-25T04:05:44.730Z,5.67
2018-11-25T04:08:14.045Z,3.60
2018-11-25T04:10:43.743Z,9.03
2018-11-25T04:13:13.824Z,6.23
2018-11-25T04:15:43.288Z,3.47
2018-11-25T04:18:14.099Z,2.23
2018-11-25T04:20:44.110Z,3.67
2018-11-25T04:23:13.582Z,2.47
2018-11-25T04:25:43.021Z,3.63
2018-11-25T04:28:12.390Z,3.90
2018-11-25T04:30:43.250Z,4.83
2018-11-25T04:33:12.714Z,4.60
2018-11-25T04:35:42.054Z,3.80
2018-11-25T04:38:11.319Z,4.50
2018-11-25T04:40:41.393Z,6.50
2018-11-25T04:43:10.591Z,5.53
2018-11-25T04:45:39.923Z,5.33
2018-11-25T04:48:09.978Z,5.73
2018-11-25T04:50:39.807Z,3.77
2018-11-25T04:53:09.347Z,6.00
2018-11-25T04:55:38.873Z,5.30
2018-11-25T04:58:08.272Z,4.97
2018-11-25T05:00:37.734Z,5.20
2018-11-25T05:03:11.186Z,3.80
2018-11-25T05:05:40.645Z,4.87
2018-11-25T05:08:09.921Z,5.70
2018-11-25T05:10:39.749Z,3.70
2018-11-25T05:13:09.389Z,3.57
2018-11-25T05:15:38.835Z,3.57
2018-11-25T05:18:09.341Z,4.37
2018-11-25T05:20:39.471Z,3.70
2018-11-25T05:23:09.026Z,2.80
2018-11-25T05:25:38.562Z,3.40
2018-11-25T05:28:07.944Z,4.03
2018-11-25T05:30:37.439Z,3.70
2018-11-25T05:33:08.375Z,2.70
2018-11-25T05:35:38.842Z,1.77
2018-11-25T05:38:08.367Z,1.90
2018-11-25T05:40:38.116Z,2.37
2018-11-25T05:43:08.110Z,2.50
2018-11-25T05:45:37.762Z,5.00
2018-11-25T05:48:07.854Z,2.60
2018-11-25T05:50:37.672Z,3.30
2018-11-25T05:53:07.524Z,2.43
2018-11-25T05:55:36.907Z,3.27
2018-11-25T05:58:06.740Z,2.63
2018-11-25T06:00:36.181Z,2.57
2018-11-25T06:03:07.679Z,1.70
2018-11-25T06:05:38.286Z,2.37
2018-11-25T06:08:08.396Z,2.70
2018-11-25T06:10:38.118Z,2.63
2018-11-25T06:13:07.792Z,2.50
2018-11-25T06:15:37.457Z,3.43
2018-11-25T06:18:06.932Z,4.40
2018-11-25T06:20:36.959Z,1.53
2018-11-25T06:23:06.759Z,3.37
2018-11-25T06:25:36.999Z,3.73
2018-11-25T06:28:06.703Z,1.80
2018-11-25T06:30:37.338Z,2.30
2018-11-25T06:33:07.218Z,4.47
2018-11-25T06:35:36.896Z,2.57
2018-11-25T06:38:06.428Z,4.57
2018-11-25T06:40:37.422Z,4.13
2018-11-25T06:43:07.484Z,4.20
2018-11-25T06:45:37.042Z,2.60
2018-11-25T06:48:06.967Z,4.00
2018-11-25T06:50:36.853Z,3.80
2018-11-25T06:53:08.554Z,2.77
2018-11-25T06:55:38.384Z,2.40
2018-11-25T06:58:07.861Z,4.13
2018-11-25T07:00:37.507Z,3.00
2018-11-25T07:03:09.313Z,2.63
2018-11-25T07:05:38.994Z,3.00
2018-11-25T07:08:08.621Z,3.93
2018-11-25T07:10:38.693Z,2.90
2018-11-25T07:13:08.498Z,3.67
2018-11-25T07:15:38.079Z,2.50
2018-11-25T07:18:07.518Z,2.43
2018-11-25T07:20:36.989Z,2.80
2018-11-25T07:23:06.603Z,2.43
2018-11-25T07:25:36.179Z,2.60
2018-11-25T07:28:18.103Z,3.73
2018-11-25T07:30:35.670Z,6.10
2018-11-25T07:33:06.682Z,5.50
2018-11-25T07:35:36.479Z,3.40
2018-11-25T07:38:06.623Z,3.50
2018-11-25T07:40:37.524Z,3.20
2018-11-25T07:43:07.317Z,4.33
2018-11-25T07:45:37.828Z,2.90
2018-11-25T07:48:07.528Z,3.57
2018-11-25T07:50:36.866Z,5.07
2018-11-25T07:53:06.492Z,5.63
2018-11-25T07:55:35.844Z,4.80
2018-11-25T07:58:05.593Z,5.57
2018-11-25T08:00:36.943Z,3.97
2018-11-25T08:03:06.462Z,3.77
2018-11-25T08:05:35.848Z,4.27
2018-11-25T08:08:05.336Z,4.10
2018-11-25T08:10:35.539Z,9.77
2018-11-25T08:13:05.686Z,10.50
2018-11-25T08:15:35.116Z,9.30
2018-11-25T08:18:05.106Z,4.20
2018-11-25T08:20:34.406Z,4.20
2018-11-25T08:23:04.489Z,4.10
2018-11-25T08:25:33.812Z,5.60
2018-11-25T08:28:03.369Z,4.10
2018-11-25T08:30:32.713Z,8.00
2018-11-25T08:33:02.380Z,6.87
2018-11-25T08:35:32.012Z,7.43
2018-11-25T08:38:02.471Z,9.73
2018-11-25T08:40:32.216Z,7.07
2018-11-25T08:43:02.735Z,7.20
2018-11-25T08:45:32.186Z,5.33
2018-11-25T08:48:02.432Z,4.67
2018-11-25T08:50:33.169Z,6.00
2018-11-25T08:53:02.656Z,8.70
2018-11-25T08:55:32.034Z,6.73
2018-11-25T08:58:01.580Z,6.57
2018-11-25T09:00:31.115Z,6.90
2018-11-25T09:03:00.492Z,7.00
2018-11-25T09:05:29.835Z,7.43
2018-11-25T09:07:59.344Z,6.50
2018-11-25T09:10:29.051Z,7.37
2018-11-25T09:12:59.206Z,4.27
2018-11-25T09:15:30.911Z,6.40
2018-11-25T09:18:01.674Z,5.73
2018-11-25T09:20:40.869Z,5.30
2018-11-25T09:23:11.427Z,5.37
2018-11-25T09:25:42.994Z,4.97
2018-11-25T09:28:13.471Z,6.37
2018-11-25T09:30:42.847Z,5.90
2018-11-25T09:33:12.520Z,6.17
2018-11-25T09:35:42.322Z,7.33
2018-11-25T09:38:11.972Z,6.70
2018-11-25T09:40:41.453Z,4.60
2018-11-25T09:43:11.730Z,7.03
2018-11-25T09:45:42.463Z,5.40
2018-11-25T09:48:12.013Z,2.83
2018-11-25T09:50:41.528Z,3.10
2018-11-25T09:53:11.595Z,5.30
2018-11-25T09:55:41.527Z,4.50
2018-11-25T09:58:11.427Z,6.37
2018-11-25T10:00:41.129Z,3.70
2018-11-25T10:03:11.350Z,5.70
2018-11-25T10:05:41.433Z,5.20
2018-11-25T10:08:12.271Z,6.03
2018-11-25T10:10:42.176Z,4.23
2018-11-25T10:13:12.411Z,5.70
2018-11-25T10:15:43.495Z,5.13
2018-11-25T10:18:13.195Z,6.10
2018-11-25T10:20:48.199Z,5.23
2018-11-25T10:23:17.815Z,4.57
2018-11-25T10:25:47.349Z,6.20
2018-11-25T10:28:16.887Z,4.30
2018-11-25T10:30:46.279Z,5.80
2018-11-25T10:33:15.982Z,23.83
2018-11-25T10:35:47.096Z,17.87
2018-11-25T10:38:17.414Z,8.40
2018-11-25T10:40:46.930Z,6.53
2018-11-25T10:43:16.529Z,13.87
2018-11-25T10:45:46.067Z,7.60
2018-11-25T10:48:15.536Z,8.70
2018-11-25T10:50:51.055Z,7.70
2018-11-25T10:53:16.023Z,14.60
2018-11-25T10:55:47.131Z,6.50
2018-11-25T10:58:16.471Z,9.53
2018-11-25T11:00:51.366Z,6.17
2018-11-25T11:03:25.821Z,8.10
2018-11-25T11:06:00.291Z,7.87
2018-11-25T11:08:29.742Z,7.63
2018-11-25T11:10:59.141Z,6.10
2018-11-25T11:13:28.919Z,8.20
2018-11-25T11:15:58.605Z,7.30
2018-11-25T11:18:28.111Z,9.30
2018-11-25T11:20:57.571Z,11.20
2018-11-25T11:23:28.460Z,6.20
2018-11-25T11:25:58.063Z,12.43
2018-11-25T11:28:28.162Z,7.20
2018-11-25T11:30:59.217Z,7.63
2018-11-25T11:33:28.639Z,10.13
2018-11-25T11:35:58.194Z,8.17
2018-11-25T11:38:27.676Z,6.37
2018-11-25T11:40:57.091Z,9.67
2018-11-25T11:43:26.527Z,9.03
2018-11-25T11:45:55.790Z,10.00
2018-11-25T11:48:25.164Z,10.90
2018-11-25T11:50:54.694Z,9.10
2018-11-25T11:53:24.412Z,13.27
2018-11-25T11:55:53.954Z,9.37
2018-11-25T11:58:24.304Z,7.60
2018-11-25T12:00:53.659Z,8.63
2018-11-25T12:03:26.457Z,10.83
2018-11-25T12:05:52.503Z,8.60
2018-11-25T12:08:22.676Z,45.77
2018-11-25T12:10:52.213Z,10.80
2018-11-25T12:13:22.101Z,7.80
2018-11-25T12:15:51.519Z,9.17
2018-11-25T12:18:20.869Z,9.13
2018-11-25T12:20:50.312Z,25.07
2018-11-25T12:23:19.834Z,36.93
2018-11-25T12:25:49.177Z,11.93
2018-11-25T12:28:18.572Z,8.93
2018-11-25T12:30:48.215Z,16.77
2018-11-25T12:33:17.718Z,37.07
2018-11-25T12:35:47.269Z,12.93
2018-11-25T12:38:16.874Z,9.67
2018-11-25T12:40:46.903Z,69.43
2018-11-25T12:43:16.413Z,106.43
2018-11-25T12:45:47.269Z,63.20
2018-11-25T12:48:16.781Z,28.50
2018-11-25T12:50:46.389Z,37.27
2018-11-25T12:53:15.861Z,133.93
2018-11-25T12:55:45.139Z,33.73
2018-11-25T12:58:14.716Z,8.93
2018-11-25T13:00:45.669Z,13.40
2018-11-25T13:03:16.331Z,11.50
2018-11-25T13:05:46.687Z,9.20
2018-11-25T13:08:15.885Z,15.50
2018-11-25T13:10:45.595Z,13.13
2018-11-25T13:13:15.030Z,11.77
2018-11-25T13:15:47.201Z,10.87
2018-11-25T13:18:16.555Z,15.10
2018-11-25T13:20:47.020Z,16.43
2018-11-25T13:23:16.491Z,9.40
2018-11-25T13:25:46.150Z,13.20
2018-11-25T13:28:15.869Z,15.83
2018-11-25T13:30:45.729Z,12.30
2018-11-25T13:33:16.046Z,13.43
2018-11-25T13:35:48.278Z,12.23
2018-11-25T13:38:19.855Z,13.17
2018-11-25T13:40:50.688Z,9.90
2018-11-25T13:43:20.199Z,12.23
2018-11-25T13:45:50.820Z,27.20
2018-11-25T13:48:20.922Z,13.37
2018-11-25T13:50:50.445Z,9.30
2018-11-25T13:53:20.429Z,10.13
2018-11-25T13:55:50.154Z,16.47
2018-11-25T13:58:19.555Z,12.20
2018-11-25T14:00:52.387Z,12.90
2018-11-25T14:03:28.281Z,18.07
2018-11-25T14:05:57.673Z,20.30
2018-11-25T14:08:28.396Z,15.40
2018-11-25T14:11:03.555Z,13.80
2018-11-25T14:13:33.038Z,19.10
2018-11-25T14:16:03.133Z,16.83
2018-11-25T14:18:34.538Z,15.13
2018-11-25T14:21:03.967Z,16.07
2018-11-25T14:23:33.362Z,19.33
2018-11-25T14:26:06.943Z,13.87
2018-11-25T14:28:36.457Z,16.30
2018-11-25T14:31:06.059Z,17.30
2018-11-25T14:33:36.050Z,19.27
2018-11-25T14:36:05.945Z,10.93
2018-11-25T14:38:34.965Z,12.83
2018-11-25T14:41:05.165Z,7.53
2018-11-25T14:43:34.275Z,6.40
2018-11-25T14:46:03.688Z,4.50
2018-11-25T14:48:33.578Z,6.40
2018-11-25T14:51:03.297Z,4.03
2018-11-25T14:53:32.626Z,4.50
2018-11-25T14:56:01.998Z,8.40
2018-11-25T14:58:31.457Z,16.50
2018-11-25T15:01:00.775Z,17.13
2018-11-25T15:03:30.232Z,15.13
2018-11-25T15:05:59.799Z,11.90
2018-11-25T15:08:29.619Z,10.80
2018-11-25T15:11:00.397Z,16.77
2018-11-25T15:13:29.881Z,18.43
2018-11-25T15:16:01.624Z,23.57
2018-11-25T15:18:31.226Z,22.23
2018-11-25T15:21:01.038Z,10.20
2018-11-25T15:23:30.558Z,20.13
2018-11-25T15:25:59.920Z,30.40
2018-11-25T15:28:31.361Z,30.73
2018-11-25T15:31:00.868Z,20.40
2018-11-25T15:33:30.860Z,21.20
2018-11-25T15:36:01.414Z,20.80
2018-11-25T15:38:30.815Z,19.93
2018-11-25T15:41:00.349Z,58.17
2018-11-25T15:43:30.028Z,43.60
2018-11-25T15:45:59.569Z,37.30
2018-11-25T15:48:30.260Z,34.80
2018-11-25T15:50:59.652Z,26.37
2018-11-25T15:53:29.051Z,9.87
2018-11-25T15:56:02.080Z,5.20
2018-11-25T15:58:32.160Z,11.73
2018-11-25T16:01:01.615Z,18.23
2018-11-25T16:03:32.111Z,20.63
2018-11-25T16:06:09.094Z,18.43
2018-11-25T16:08:39.405Z,16.50
2018-11-25T16:11:09.604Z,20.13
2018-11-25T16:13:41.123Z,14.90
2018-11-25T16:16:10.796Z,16.70
2018-11-25T16:18:41.348Z,20.83
2018-11-25T16:21:12.329Z,18.60
2018-11-25T16:23:43.062Z,16.90
2018-11-25T16:26:16.570Z,17.53
2018-11-25T16:28:47.479Z,24.53
2018-11-25T16:31:17.598Z,22.93
2018-11-25T16:33:47.991Z,21.20
2018-11-25T16:36:19.022Z,23.23
2018-11-25T16:38:49.305Z,21.40
2018-11-25T16:41:21.160Z,19.67
2018-11-25T16:43:52.083Z,14.97
2018-11-25T16:46:22.957Z,18.23
2018-11-25T16:48:53.324Z,11.20
2018-11-25T16:51:22.888Z,12.23
2018-11-25T16:53:53.458Z,12.07
2018-11-25T16:56:23.318Z,10.70
2018-11-25T16:58:53.549Z,15.67
2018-11-25T17:01:25.598Z,17.93
2018-11-25T17:03:56.663Z,11.97
2018-11-25T17:06:26.162Z,31.87
2018-11-25T17:08:55.613Z,19.57
2018-11-25T17:11:26.952Z,19.13
2018-11-25T17:13:57.212Z,16.63
2018-11-25T17:16:27.891Z,30.67
2018-11-25T17:18:58.565Z,33.93
2018-11-25T17:21:28.409Z,38.83
2018-11-25T17:24:00.285Z,21.00
2018-11-25T17:26:30.769Z,21.60
2018-11-25T17:29:00.252Z,25.87
2018-11-25T17:31:29.621Z,25.83
2018-11-25T17:34:00.911Z,28.17
2018-11-25T17:36:30.581Z,25.73
2018-11-25T17:39:01.158Z,19.57
2018-11-25T17:41:30.866Z,27.73
2018-11-25T17:44:00.464Z,33.00
2018-11-25T17:46:31.135Z,18.47
2018-11-25T17:49:01.895Z,13.60
2018-11-25T17:51:32.396Z,12.00
2018-11-25T17:54:04.396Z,10.90
2018-11-25T17:56:33.955Z,16.87
2018-11-25T17:59:03.346Z,14.73
2018-11-25T18:01:33.249Z,17.33
2018-11-25T18:04:03.270Z,16.23
2018-11-25T18:06:35.889Z,17.53
2018-11-25T18:09:11.655Z,12.50
2018-11-25T18:11:41.281Z,21.70
2018-11-25T18:14:13.073Z,17.60
2018-11-25T18:16:42.925Z,19.60
2018-11-25T18:19:21.844Z,16.57
2018-11-25T18:21:56.297Z,14.50
2018-11-25T18:24:26.393Z,13.40
2018-11-25T18:26:57.197Z,9.70
2018-11-25T18:29:26.959Z,14.17
2018-11-25T18:31:56.882Z,9.97
2018-11-25T18:34:26.560Z,20.90
2018-11-25T18:36:58.302Z,13.43
2018-11-25T18:39:27.976Z,9.13
2018-11-25T18:41:58.662Z,12.23
2018-11-25T18:44:29.185Z,8.30
2018-11-25T18:46:59.455Z,9.50
2018-11-25T18:49:29.084Z,7.73
2018-11-25T18:52:05.069Z,8.93
2018-11-25T18:54:30.404Z,6.70
2018-11-25T18:57:00.460Z,6.17
2018-11-25T18:59:30.060Z,8.20
2018-11-25T19:02:01.792Z,11.87
2018-11-25T19:04:32.172Z,9.10
2018-11-25T19:07:02.668Z,7.80
2018-11-25T19:09:33.579Z,6.23
2018-11-25T19:12:03.813Z,8.33
2018-11-25T19:14:33.569Z,11.57
2018-11-25T19:17:04.106Z,8.57
2018-11-25T19:19:33.752Z,7.70
2018-11-25T19:22:03.346Z,6.50
2018-11-25T19:24:33.633Z,8.03
2018-11-25T19:27:04.460Z,9.33
2018-11-25T19:29:35.896Z,6.90
2018-11-25T19:32:05.763Z,12.10
2018-11-25T19:34:36.357Z,6.77
2018-11-25T19:37:07.475Z,9.60
2018-11-25T19:39:37.045Z,11.27
2018-11-25T19:42:07.157Z,13.47
2018-11-25T19:44:37.175Z,14.83
2018-11-25T19:47:07.844Z,9.93
2018-11-25T19:49:39.258Z,4.53
2018-11-25T19:52:08.882Z,5.90
2018-11-25T19:54:38.918Z,7.50
2018-11-25T19:57:10.716Z,7.83
2018-11-25T19:59:43.145Z,7.30
2018-11-25T20:02:12.539Z,10.37
2018-11-25T20:04:44.172Z,9.87
2018-11-25T20:07:15.946Z,8.87
2018-11-25T20:09:45.694Z,10.13
2018-11-25T20:12:17.153Z,13.73
2018-11-25T20:14:47.773Z,9.70
2018-11-25T20:17:23.071Z,9.07
2018-11-25T20:19:54.085Z,8.50
2018-11-25T20:22:24.170Z,8.23
2018-11-25T20:24:55.490Z,7.33
2018-11-25T20:27:30.415Z,12.87
2018-11-25T20:30:00.626Z,11.63
2018-11-25T20:32:34.997Z,8.60
2018-11-25T20:35:05.841Z,8.30
2018-11-25T20:37:35.809Z,8.13
2018-11-25T20:40:07.664Z,10.00
2018-11-25T20:42:38.022Z,8.97
2018-11-25T20:45:12.995Z,8.57
2018-11-25T20:47:48.640Z,23.03
2018-11-25T20:50:19.443Z,10.40
2018-11-25T20:52:55.013Z,7.97
2018-11-25T20:55:24.884Z,9.80
2018-11-25T20:57:57.665Z,8.27
2018-11-25T21:00:29.351Z,11.93
2018-11-25T21:02:59.010Z,11.90
2018-11-25T21:05:29.667Z,9.97
2018-11-25T21:07:59.552Z,13.43
2018-11-25T21:10:29.195Z,11.97
2018-11-25T21:12:58.937Z,7.70
2018-11-25T21:15:36.545Z,7.40
2018-11-25T21:18:06.837Z,7.87
2018-11-25T21:20:37.439Z,6.93
2018-11-25T21:23:07.100Z,7.70
2018-11-25T21:25:37.058Z,5.53
2018-11-25T21:28:06.573Z,8.27
2018-11-25T21:30:36.067Z,7.10
2018-11-25T21:33:05.811Z,8.47
2018-11-25T21:35:35.740Z,7.53
2018-11-25T21:38:05.181Z,6.27
2018-11-25T21:40:34.621Z,8.20
2018-11-25T21:43:03.892Z,7.10
2018-11-25T21:45:33.310Z,7.10
2018-11-25T21:48:02.898Z,6.37
2018-11-25T21:50:32.525Z,7.50
2018-11-25T21:53:01.982Z,7.83
2018-11-25T21:55:31.530Z,8.27
2018-11-25T21:58:01.021Z,7.80
2018-11-25T22:00:31.809Z,9.10
2018-11-25T22:03:01.336Z,8.37
2018-11-25T22:05:30.858Z,8.03
2018-11-25T22:08:00.102Z,8.90
2018-11-25T22:10:30.058Z,6.33
2018-11-25T22:12:59.510Z,5.23
2018-11-25T22:15:28.874Z,9.53
2018-11-25T22:17:58.675Z,8.40
2018-11-25T22:20:28.202Z,7.73
2018-11-25T22:22:58.206Z,7.57
2018-11-25T22:25:27.652Z,9.00
2018-11-25T22:27:57.113Z,9.47
2018-11-25T22:30:26.985Z,5.37
2018-11-25T22:32:56.695Z,5.37
2018-11-25T22:35:26.187Z,5.53
2018-11-25T22:37:55.760Z,5.90
2018-11-25T22:40:25.154Z,4.70
2018-11-25T22:42:54.686Z,6.90
2018-11-25T22:45:24.280Z,6.77
2018-11-25T22:47:53.518Z,5.63
2018-11-25T22:50:27.625Z,5.97
2018-11-25T22:52:52.825Z,4.30
2018-11-25T22:55:25.445Z,5.60
2018-11-25T22:57:54.727Z,7.93
2018-11-25T23:00:27.780Z,6.17
2018-11-25T23:02:57.268Z,5.13
2018-11-25T23:05:37.220Z,6.70
2018-11-25T23:08:07.208Z,4.80
2018-11-25T23:10:36.899Z,5.70
2018-11-25T23:13:07.433Z,7.53
2018-11-25T23:15:37.131Z,6.87
2018-11-25T23:18:06.654Z,5.60
2018-11-25T23:20:35.878Z,6.00
2018-11-25T23:23:09.299Z,3.20
2018-11-25T23:25:38.778Z,4.23
2018-11-25T23:28:08.077Z,3.93
2018-11-25T23:30:37.615Z,3.57
2018-11-25T23:33:08.202Z,2.40
2018-11-25T23:35:37.687Z,2.70
2018-11-25T23:38:07.253Z,1.93
2018-11-25T23:40:36.671Z,3.83
2018-11-25T23:43:08.713Z,2.33
2018-11-25T23:45:37.778Z,3.10
2018-11-25T23:48:07.328Z,2.90
2018-11-25T23:50:36.721Z,3.03
2018-11-25T23:53:08.617Z,3.03
2018-11-25T23:55:38.554Z,7.00
2018-11-25T23:58:08.049Z,3.17
